Airfield :
LOGIN :

Register | Disclaimer

   EN    FR    IT 

 










Legend :    VFR   Marginal VFR   IFR   Intensive IFR   Very Intensive IFR
Visi :
Ceiling :
>= 8 km
>= 3000ft
5 to 8 km
1000 to 3000 ft
1500m to 5 km
500 to 1000 ft
800 to 1500m
200 to 500 ft
< 800m
< 200 ft
Symbols :   Thunderstorms  Fog  Heavy snow  Heavy precipitations  Wind > 20 kt
SIGMETs :     Misc.  Thunderstorms  Icing  Turbulence  Mountain Waves  Volcanic Ashes






- Airport Elevation : 20 ft
- IATA code : DLM


LTBS - Dalaman

CURRENT METAR :
  • 070850Z 20010KT 9999 FEW025 BKN180 25/14 Q1013 NOSIG RMK RWY19 VRB09KT 2CU025 5CI180

EXPIRED METARs :
  • 070820Z VRB04KT 9999 FEW025 SCT180 27/10 Q1012 NOSIG
  • 070750Z VRB05KT 9999 FEW025 SCT180 26/11 Q1012 NOSIG RMK RWY19 36005KT 310V090 1CU025 3CI180
  • 070720Z 01007KT 340V040 9999 FEW025 SCT180 25/10 Q1012 BECMG TL0900 21012KT RMK RWY19 02006KT 350V060 1CU025 3CI180
  • 070650Z 02008KT 9999 FEW025 SCT180 24/11 Q1012 BECMG 21012KT RMK RWY19 02007KT 1CU025 3CI180
  • 070620Z 01007KT 340V040 9999 FEW025 SCT180 23/12 Q1012 NOSIG

TAF TAF LTBS
Valid from the 07 at 06:00 until the 08 at 06:00 UTC


070440Z 0706/0806 02007KT 9999 FEW030 SCT120
BECMG 0707/0709 21012KT
BECMG 0710/0712 BKN025 BKN090
PROB40
TEMPO 0713/0717 19015G25KT 4000 TSRA SCT015CB BKN025
BECMG 0717/0719 VRB02KT
BECMG 0720/0722 CAVOK



MET'MAP, your aeronautical weather chart ! - Copyright ORBIFLY December 2007 - Disclaimer

ORBIFLY MET'MAP TEAM :

Programming & Development : Alexandra Zaïnal
Original concept : Baudouin d'Aumeries
Technical & hardware support : Manuel Goepfert
Assistance : Marc-Olivier Méhu




SOURCES & CREDITS :

   NOAA